createdAt,value
2022-09-27T00:01:24.915Z,6.63
2022-09-27T00:03:58.699Z,8.23
2022-09-27T00:06:27.810Z,6.50
2022-09-27T00:08:55.355Z,6.20
2022-09-27T00:11:28.739Z,8.90
2022-09-27T00:13:56.599Z,5.20
2022-09-27T00:16:24.946Z,7.23
2022-09-27T00:18:52.101Z,8.07
2022-09-27T00:21:19.228Z,6.20
2022-09-27T00:23:46.380Z,6.40
2022-09-27T00:26:14.180Z,6.47
2022-09-27T00:28:41.341Z,5.97
2022-09-27T00:31:37.702Z,6.57
2022-09-27T00:34:05.458Z,7.60
2022-09-27T00:36:33.278Z,6.33
2022-09-27T00:39:00.956Z,6.93
2022-09-27T00:41:32.306Z,8.30
2022-09-27T00:44:01.235Z,6.80
2022-09-27T00:46:40.530Z,6.20
2022-09-27T00:49:14.070Z,6.13
2022-09-27T00:51:41.682Z,7.87
2022-09-27T00:54:10.912Z,8.50
2022-09-27T00:56:38.254Z,7.50
2022-09-27T00:59:19.618Z,5.37
2022-09-27T01:01:46.910Z,6.47
2022-09-27T01:04:16.674Z,7.20
2022-09-27T01:06:43.813Z,6.17
2022-09-27T01:09:12.208Z,5.23
2022-09-27T01:11:42.785Z,6.87
2022-09-27T01:14:15.973Z,5.57
2022-09-27T01:16:54.259Z,5.90
2022-09-27T01:19:40.265Z,5.63
2022-09-27T01:22:25.702Z,8.30
2022-09-27T01:24:52.779Z,5.33
2022-09-27T01:27:19.850Z,6.00
2022-09-27T01:29:49.981Z,7.30
2022-09-27T01:32:27.408Z,6.40
2022-09-27T01:35:01.595Z,5.80
2022-09-27T01:37:50.242Z,6.77
2022-09-27T01:40:28.419Z,6.10
2022-09-27T01:43:07.447Z,8.13
2022-09-27T01:45:39.775Z,6.57
2022-09-27T01:48:16.227Z,6.83
2022-09-27T01:50:47.120Z,6.17
2022-09-27T01:53:40.551Z,6.80
2022-09-27T01:56:10.839Z,8.00
2022-09-27T01:58:41.915Z,6.47
2022-09-27T02:01:10.683Z,6.90
2022-09-27T02:03:39.406Z,6.43
2022-09-27T02:06:12.884Z,6.33
2022-09-27T02:08:41.859Z,8.17
2022-09-27T02:11:13.522Z,7.00
2022-09-27T02:13:50.458Z,6.53
2022-09-27T02:16:22.180Z,6.87
2022-09-27T02:19:07.290Z,6.20
2022-09-27T02:21:40.300Z,6.17
2022-09-27T02:24:07.785Z,6.83
2022-09-27T02:26:39.167Z,7.07
2022-09-27T02:29:08.300Z,7.80
2022-09-27T02:31:35.447Z,6.30
2022-09-27T02:34:18.843Z,8.43
2022-09-27T02:36:45.942Z,6.57
2022-09-27T02:39:13.042Z,6.93
2022-09-27T02:41:40.167Z,6.03
2022-09-27T02:44:09.963Z,7.10
2022-09-27T02:46:46.871Z,5.60
2022-09-27T02:49:33.012Z,6.37
2022-09-27T02:52:15.467Z,6.93
2022-09-27T02:54:53.168Z,5.87
2022-09-27T02:57:23.051Z,6.60
2022-09-27T03:00:04.765Z,6.57
2022-09-27T03:02:51.980Z,6.40
2022-09-27T03:05:21.643Z,7.97
2022-09-27T03:07:49.371Z,6.80
2022-09-27T03:10:18.339Z,6.73
2022-09-27T03:12:45.436Z,8.33
2022-09-27T03:15:13.683Z,5.33
2022-09-27T03:17:40.868Z,6.53
2022-09-27T03:20:08.909Z,6.77
2022-09-27T03:22:37.747Z,6.20
2022-09-27T03:25:06.129Z,5.73
2022-09-27T03:27:33.234Z,6.57
2022-09-27T03:30:00.395Z,6.17
2022-09-27T03:32:28.337Z,6.77
2022-09-27T03:34:55.525Z,6.33
2022-09-27T03:37:23.032Z,6.50
2022-09-27T03:39:50.147Z,6.90
2022-09-27T03:42:17.265Z,6.60
2022-09-27T03:44:44.756Z,4.73
2022-09-27T03:47:11.848Z,6.73
2022-09-27T03:49:38.993Z,7.43
2022-09-27T03:52:06.117Z,6.37
2022-09-27T03:54:33.220Z,7.10
2022-09-27T03:57:00.339Z,7.43
2022-09-27T03:59:27.444Z,5.40
2022-09-27T04:01:54.668Z,7.20
2022-09-27T04:04:21.816Z,5.43
2022-09-27T04:06:49.170Z,6.20
2022-09-27T04:09:16.485Z,5.30
2022-09-27T04:11:43.749Z,6.40
2022-09-27T04:14:12.914Z,6.77
2022-09-27T04:16:43.844Z,5.93
2022-09-27T04:19:11.169Z,7.47
2022-09-27T04:21:38.384Z,5.23
2022-09-27T04:24:06.569Z,6.00
2022-09-27T04:26:33.701Z,7.23
2022-09-27T04:29:00.836Z,6.80
2022-09-27T04:31:28.027Z,6.37
2022-09-27T04:33:55.379Z,5.63
2022-09-27T04:36:26.602Z,6.03
2022-09-27T04:38:57.842Z,5.30
2022-09-27T04:41:25.542Z,4.63
2022-09-27T04:43:58.068Z,5.00
2022-09-27T04:46:26.089Z,5.73
2022-09-27T04:48:53.301Z,4.07
2022-09-27T04:51:20.999Z,5.83
2022-09-27T04:53:48.122Z,4.87
2022-09-27T04:56:15.963Z,5.13
2022-09-27T04:58:43.139Z,4.53
2022-09-27T05:01:10.875Z,3.80
2022-09-27T05:03:38.974Z,5.00
2022-09-27T05:06:06.157Z,4.40
2022-09-27T05:08:33.254Z,4.37
2022-09-27T05:11:01.289Z,4.63
2022-09-27T05:13:28.441Z,3.77
2022-09-27T05:15:55.599Z,4.57
2022-09-27T05:18:22.915Z,3.63
2022-09-27T05:20:50.158Z,4.07
2022-09-27T05:23:17.312Z,6.23
2022-09-27T05:25:44.718Z,5.03
2022-09-27T05:28:11.860Z,3.40
2022-09-27T05:30:39.099Z,4.90
2022-09-27T05:33:06.257Z,4.73
2022-09-27T05:35:33.935Z,4.40
2022-09-27T05:38:01.557Z,4.00
2022-09-27T05:40:40.964Z,4.07
2022-09-27T05:43:09.088Z,3.90
2022-09-27T05:45:36.744Z,4.70
2022-09-27T05:48:04.212Z,4.93
2022-09-27T05:50:31.651Z,5.33
2022-09-27T05:52:58.754Z,5.80
2022-09-27T05:55:25.840Z,6.87
2022-09-27T05:57:57.434Z,5.47
2022-09-27T06:00:25.945Z,5.33
2022-09-27T06:02:57.213Z,4.30
2022-09-27T06:05:25.191Z,5.60
2022-09-27T06:07:52.864Z,6.70
2022-09-27T06:10:20.954Z,5.90
2022-09-27T06:12:48.112Z,4.70
2022-09-27T06:15:15.255Z,4.97
2022-09-27T06:17:42.379Z,5.90
2022-09-27T06:20:09.844Z,5.33
2022-09-27T06:22:37.669Z,6.93
2022-09-27T06:25:05.157Z,5.97
2022-09-27T06:27:32.624Z,7.47
2022-09-27T06:30:00.042Z,7.00
2022-09-27T06:32:27.150Z,6.13
2022-09-27T06:34:54.309Z,5.00
2022-09-27T06:37:21.416Z,7.47
2022-09-27T06:39:49.246Z,7.40
2022-09-27T06:42:18.121Z,5.73
2022-09-27T06:44:50.169Z,7.57
2022-09-27T06:47:18.211Z,5.90
2022-09-27T06:49:46.212Z,6.93
2022-09-27T06:52:13.327Z,7.13
2022-09-27T06:54:40.416Z,7.63
2022-09-27T06:57:07.536Z,6.77
2022-09-27T06:59:53.123Z,6.23
2022-09-27T07:02:20.250Z,6.63
2022-09-27T07:04:47.356Z,6.10
2022-09-27T07:07:14.508Z,6.43
2022-09-27T07:09:42.280Z,6.97
2022-09-27T07:12:09.436Z,7.07
2022-09-27T07:14:36.580Z,6.50
2022-09-27T07:17:03.666Z,7.63
2022-09-27T07:19:30.776Z,6.70
2022-09-27T07:21:57.863Z,9.57
2022-09-27T07:24:24.946Z,7.40
2022-09-27T07:26:52.079Z,6.23
2022-09-27T07:29:19.381Z,7.83
2022-09-27T07:31:46.608Z,7.03
2022-09-27T07:34:13.699Z,7.90
2022-09-27T07:36:40.802Z,7.30
2022-09-27T07:39:07.980Z,5.47
2022-09-27T07:41:35.104Z,7.73
2022-09-27T07:44:02.446Z,6.57
2022-09-27T07:46:30.923Z,6.03
2022-09-27T07:48:58.765Z,8.33
2022-09-27T07:51:25.915Z,6.77
2022-09-27T07:53:53.040Z,6.17
2022-09-27T07:56:20.201Z,6.87
2022-09-27T07:58:47.707Z,5.70
2022-09-27T08:01:14.929Z,7.13
2022-09-27T08:03:42.112Z,7.70
2022-09-27T08:06:09.263Z,7.27
2022-09-27T08:08:36.514Z,5.63
2022-09-27T08:11:13.725Z,7.03
2022-09-27T08:13:40.831Z,7.30
2022-09-27T08:16:08.051Z,7.47
2022-09-27T08:18:35.444Z,8.90
2022-09-27T08:21:02.691Z,5.93
2022-09-27T08:23:29.836Z,6.97
2022-09-27T08:25:59.286Z,5.83
2022-09-27T08:28:29.762Z,5.47
2022-09-27T08:30:59.286Z,6.43
2022-09-27T08:33:32.002Z,6.60
2022-09-27T08:36:00.225Z,6.63
2022-09-27T08:38:27.335Z,6.50
2022-09-27T08:41:07.460Z,7.47
2022-09-27T08:43:37.739Z,6.30
2022-09-27T08:46:08.450Z,5.27
2022-09-27T08:48:37.788Z,5.37
2022-09-27T08:51:06.414Z,6.40
2022-09-27T08:53:36.112Z,6.03
2022-09-27T08:56:03.789Z,8.30
2022-09-27T08:58:32.847Z,7.20
2022-09-27T09:01:03.330Z,6.63
2022-09-27T09:03:32.111Z,6.63
2022-09-27T09:06:17.339Z,5.97
2022-09-27T09:09:00.706Z,7.87
2022-09-27T09:12:05.378Z,8.37
2022-09-27T09:14:51.051Z,7.63
2022-09-27T09:17:24.792Z,6.27
2022-09-27T09:20:01.301Z,6.90
2022-09-27T09:22:48.431Z,7.83
2022-09-27T09:25:34.018Z,7.40
2022-09-27T09:28:21.737Z,8.73
2022-09-27T09:31:06.208Z,8.83
2022-09-27T09:33:47.034Z,6.87
2022-09-27T09:36:26.364Z,6.80
2022-09-27T09:38:56.020Z,6.27
2022-09-27T09:41:23.132Z,8.33
2022-09-27T09:43:57.336Z,6.80
2022-09-27T09:46:29.089Z,8.10
2022-09-27T09:48:59.442Z,7.17
2022-09-27T09:51:34.464Z,6.50
2022-09-27T09:54:16.782Z,6.07
2022-09-27T09:56:49.651Z,5.63
2022-09-27T09:59:21.085Z,6.47
2022-09-27T10:01:48.689Z,5.83
2022-09-27T10:04:23.961Z,6.93
2022-09-27T10:06:52.159Z,8.03
2022-09-27T10:09:23.119Z,7.47
2022-09-27T10:11:50.376Z,7.83
2022-09-27T10:14:19.706Z,7.60
2022-09-27T10:16:48.756Z,6.57
2022-09-27T10:19:22.933Z,7.07
2022-09-27T10:21:51.695Z,6.07
2022-09-27T10:24:19.648Z,5.80
2022-09-27T10:26:51.104Z,5.73
2022-09-27T10:29:20.995Z,6.83
2022-09-27T10:31:50.294Z,6.43
2022-09-27T10:34:38.048Z,6.63
2022-09-27T10:37:17.409Z,6.10
2022-09-27T10:39:46.183Z,8.07
2022-09-27T10:42:32.293Z,5.63
2022-09-27T10:44:59.383Z,8.37
2022-09-27T10:47:27.122Z,7.87
2022-09-27T10:50:03.003Z,6.83
2022-09-27T10:52:30.147Z,6.00
2022-09-27T10:54:58.580Z,7.13
2022-09-27T10:57:27.235Z,7.07
2022-09-27T10:59:58.664Z,6.53
2022-09-27T11:02:30.318Z,5.73
2022-09-27T11:05:15.358Z,6.50
2022-09-27T11:07:53.422Z,6.50
2022-09-27T11:10:27.758Z,8.60
2022-09-27T11:13:14.400Z,7.70
2022-09-27T11:15:41.541Z,6.33
2022-09-27T11:18:25.216Z,5.83
2022-09-27T11:20:54.122Z,6.47
2022-09-27T11:23:21.253Z,7.40
2022-09-27T11:25:57.275Z,6.87
2022-09-27T11:28:42.678Z,7.07
2022-09-27T11:31:19.560Z,6.33
2022-09-27T11:33:50.331Z,5.97
2022-09-27T11:36:28.028Z,5.53
2022-09-27T11:39:07.226Z,7.47
2022-09-27T11:41:46.588Z,6.93
2022-09-27T11:44:25.793Z,5.20
2022-09-27T11:47:11.431Z,6.80
2022-09-27T11:49:41.340Z,7.53
2022-09-27T11:52:32.022Z,6.30
2022-09-27T11:55:08.944Z,7.07
2022-09-27T11:57:41.893Z,6.30
2022-09-27T12:00:13.115Z,6.73
2022-09-27T12:02:56.006Z,6.83
2022-09-27T12:05:31.438Z,6.00
2022-09-27T12:07:58.495Z,5.43
2022-09-27T12:10:25.804Z,6.00
2022-09-27T12:12:54.883Z,6.23
2022-09-27T12:15:23.730Z,6.37
2022-09-27T12:17:53.390Z,6.07
2022-09-27T12:20:30.978Z,6.33
2022-09-27T12:22:59.937Z,5.53
2022-09-27T12:25:30.266Z,5.93
2022-09-27T12:28:03.560Z,6.57
2022-09-27T12:30:32.190Z,6.53
2022-09-27T12:33:07.952Z,6.30
2022-09-27T12:35:37.102Z,5.30
2022-09-27T12:38:12.322Z,6.13
2022-09-27T12:40:41.554Z,4.97
2022-09-27T12:43:12.863Z,5.10
2022-09-27T12:45:52.054Z,4.93
2022-09-27T12:48:28.160Z,5.33
2022-09-27T12:51:08.625Z,4.93
2022-09-27T12:53:46.555Z,6.23
2022-09-27T12:56:17.136Z,6.27
2022-09-27T12:59:04.486Z,5.40
2022-09-27T13:01:35.930Z,5.17
2022-09-27T13:04:10.499Z,5.43
2022-09-27T13:06:57.320Z,5.83
2022-09-27T13:09:42.114Z,4.70
2022-09-27T13:12:14.895Z,5.60
2022-09-27T13:14:58.212Z,3.77
2022-09-27T13:17:40.950Z,5.30
2022-09-27T13:20:26.920Z,4.00
2022-09-27T13:22:54.625Z,4.97
2022-09-27T13:25:40.429Z,5.07
2022-09-27T13:28:28.172Z,6.47
2022-09-27T13:31:02.423Z,5.73
2022-09-27T13:33:29.639Z,5.23
2022-09-27T13:36:15.520Z,4.63
2022-09-27T13:38:55.571Z,4.33
2022-09-27T13:41:23.074Z,4.70
2022-09-27T13:44:03.044Z,5.00
2022-09-27T13:46:31.334Z,4.37
2022-09-27T13:49:00.193Z,5.80
2022-09-27T13:51:47.808Z,4.93
2022-09-27T13:54:33.582Z,4.73
2022-09-27T13:57:01.963Z,4.87
2022-09-27T13:59:43.455Z,5.03
2022-09-27T14:02:22.508Z,4.47
2022-09-27T14:04:53.387Z,4.23
2022-09-27T14:07:25.744Z,4.97
2022-09-27T14:09:53.967Z,4.27
2022-09-27T14:12:38.164Z,6.20
2022-09-27T14:15:05.825Z,3.77
2022-09-27T14:17:33.227Z,4.57
2022-09-27T14:20:01.357Z,4.23
2022-09-27T14:22:28.584Z,4.33
2022-09-27T14:24:56.373Z,5.40
2022-09-27T14:27:25.252Z,5.47
2022-09-27T14:29:53.955Z,3.53
2022-09-27T14:32:22.861Z,5.37
2022-09-27T14:35:31.120Z,3.70
2022-09-27T14:38:07.575Z,4.07
2022-09-27T14:40:59.146Z,4.73
2022-09-27T14:43:26.811Z,5.10
2022-09-27T14:45:54.580Z,4.27
2022-09-27T14:48:28.418Z,3.97
2022-09-27T14:51:04.968Z,4.10
2022-09-27T14:53:37.224Z,5.67
2022-09-27T14:56:07.166Z,4.57
2022-09-27T14:58:47.223Z,4.00
2022-09-27T15:01:20.178Z,4.10
2022-09-27T15:03:52.676Z,5.27
2022-09-27T15:06:20.323Z,5.43
2022-09-27T15:08:49.605Z,5.00
2022-09-27T15:11:19.148Z,5.30
2022-09-27T15:13:47.241Z,3.23
2022-09-27T15:16:18.959Z,4.43
2022-09-27T15:18:47.205Z,4.97
2022-09-27T15:21:34.210Z,4.47
2022-09-27T15:24:02.796Z,4.03
2022-09-27T15:26:38.240Z,4.57
2022-09-27T15:29:05.700Z,5.07
2022-09-27T15:31:36.722Z,4.87
2022-09-27T15:34:07.561Z,4.60
2022-09-27T15:36:51.834Z,5.13
2022-09-27T15:39:27.535Z,5.97
2022-09-27T15:42:06.909Z,4.83
2022-09-27T15:44:45.320Z,5.87
2022-09-27T15:47:34.567Z,5.10
2022-09-27T15:50:34.316Z,4.80
2022-09-27T15:53:02.896Z,4.33
2022-09-27T15:55:30.308Z,5.30
2022-09-27T15:57:59.285Z,4.97
2022-09-27T16:00:27.392Z,5.10
2022-09-27T16:02:54.712Z,5.03
2022-09-27T16:05:23.838Z,5.37
2022-09-27T16:07:51.610Z,4.53
2022-09-27T16:10:19.973Z,6.30
2022-09-27T16:12:47.125Z,5.67
2022-09-27T16:15:15.125Z,7.23
2022-09-27T16:17:45.384Z,5.50
2022-09-27T16:20:24.978Z,5.13
2022-09-27T16:22:52.667Z,5.53
2022-09-27T16:25:20.048Z,5.93
2022-09-27T16:27:47.207Z,5.47
2022-09-27T16:30:14.935Z,5.27
2022-09-27T16:32:42.837Z,4.80
2022-09-27T16:35:10.821Z,6.77
2022-09-27T16:37:38.205Z,5.53
2022-09-27T16:40:06.460Z,5.83
2022-09-27T16:42:33.719Z,6.50
2022-09-27T16:45:04.840Z,5.83
2022-09-27T16:47:35.500Z,6.23
2022-09-27T16:50:21.827Z,5.80
2022-09-27T16:52:50.061Z,6.03
2022-09-27T16:55:20.609Z,5.67
2022-09-27T16:57:48.118Z,5.63
2022-09-27T17:00:15.530Z,7.07
2022-09-27T17:02:47.037Z,5.53
2022-09-27T17:05:14.883Z,6.37
2022-09-27T17:07:42.480Z,5.23
2022-09-27T17:10:09.728Z,4.97
2022-09-27T17:12:36.903Z,6.30
2022-09-27T17:15:04.551Z,5.20
2022-09-27T17:17:31.630Z,5.43
2022-09-27T17:19:58.891Z,5.07
2022-09-27T17:22:25.989Z,4.97
2022-09-27T17:24:53.139Z,7.07
2022-09-27T17:27:25.186Z,6.10
2022-09-27T17:29:52.935Z,5.40
2022-09-27T17:32:22.345Z,5.93
2022-09-27T17:34:49.423Z,5.40
2022-09-27T17:37:16.907Z,7.03
2022-09-27T17:39:44.212Z,5.70
2022-09-27T17:42:12.555Z,5.10
2022-09-27T17:44:39.688Z,5.80
2022-09-27T17:47:25.278Z,4.70
2022-09-27T17:50:11.255Z,5.77
2022-09-27T17:52:38.371Z,6.03
2022-09-27T17:55:05.757Z,5.90
2022-09-27T17:57:32.913Z,6.60
2022-09-27T17:59:59.987Z,5.53
2022-09-27T18:02:27.770Z,5.93
2022-09-27T18:04:54.968Z,5.67
2022-09-27T18:07:22.177Z,6.13
2022-09-27T18:09:51.014Z,6.40
2022-09-27T18:12:18.514Z,5.80
2022-09-27T18:14:45.806Z,6.67
2022-09-27T18:17:13.415Z,5.70
2022-09-27T18:19:40.708Z,5.47
2022-09-27T18:22:07.788Z,5.57
2022-09-27T18:24:34.924Z,6.20
2022-09-27T18:27:03.351Z,6.87
2022-09-27T18:29:30.424Z,6.23
2022-09-27T18:31:57.653Z,6.63
2022-09-27T18:34:27.809Z,6.80
2022-09-27T18:36:54.894Z,6.53
2022-09-27T18:39:22.231Z,6.53
2022-09-27T18:41:49.565Z,6.30
2022-09-27T18:44:17.271Z,6.63
2022-09-27T18:46:44.929Z,6.80
2022-09-27T18:49:13.308Z,6.93
2022-09-27T18:51:43.700Z,6.00
2022-09-27T18:54:18.239Z,7.80
2022-09-27T18:56:45.962Z,6.83
2022-09-27T18:59:13.374Z,6.37
2022-09-27T19:01:44.819Z,6.67
2022-09-27T19:04:13.504Z,8.70
2022-09-27T19:06:40.724Z,6.13
2022-09-27T19:09:08.379Z,6.80
2022-09-27T19:11:35.983Z,6.37
2022-09-27T19:14:03.507Z,6.70
2022-09-27T19:16:31.085Z,6.03
2022-09-27T19:18:58.352Z,5.87
2022-09-27T19:21:26.877Z,6.30
2022-09-27T19:23:54.121Z,6.27
2022-09-27T19:26:22.769Z,6.53
2022-09-27T19:28:50.253Z,6.60
2022-09-27T19:31:18.721Z,7.40
2022-09-27T19:33:46.092Z,6.53
2022-09-27T19:36:13.962Z,7.20
2022-09-27T19:38:41.291Z,5.77
2022-09-27T19:41:10.503Z,6.07
2022-09-27T19:43:37.759Z,5.50
2022-09-27T19:46:12.744Z,7.87
2022-09-27T19:48:39.899Z,7.40
2022-09-27T19:51:07.330Z,5.50
2022-09-27T19:53:35.176Z,6.40
2022-09-27T19:56:03.447Z,6.07
2022-09-27T19:58:31.348Z,5.40
2022-09-27T20:00:59.648Z,6.23
2022-09-27T20:03:26.851Z,6.10
2022-09-27T20:05:54.891Z,5.70
2022-09-27T20:08:22.037Z,6.23
2022-09-27T20:10:56.108Z,6.83
2022-09-27T20:13:24.117Z,7.33
2022-09-27T20:15:51.610Z,6.27
2022-09-27T20:18:18.711Z,5.90
2022-09-27T20:20:45.854Z,7.33
2022-09-27T20:23:13.203Z,6.00
2022-09-27T20:25:43.093Z,6.80
2022-09-27T20:28:10.361Z,6.67
2022-09-27T20:30:37.446Z,6.00
2022-09-27T20:33:23.108Z,5.93
2022-09-27T20:35:53.991Z,6.50
2022-09-27T20:38:21.169Z,7.80
2022-09-27T20:40:54.879Z,6.37
2022-09-27T20:43:22.223Z,6.93
2022-09-27T20:45:49.325Z,6.70
2022-09-27T20:48:16.488Z,8.00
2022-09-27T20:50:43.595Z,7.20
2022-09-27T20:53:10.811Z,8.80
2022-09-27T20:55:38.050Z,7.10
2022-09-27T20:58:05.151Z,7.63
2022-09-27T21:00:32.348Z,7.20
2022-09-27T21:02:59.638Z,7.47
2022-09-27T21:05:26.736Z,7.90
2022-09-27T21:07:55.073Z,8.17
2022-09-27T21:10:22.448Z,9.50
2022-09-27T21:12:49.714Z,9.37
2022-09-27T21:15:16.908Z,6.93
2022-09-27T21:17:44.023Z,8.60
2022-09-27T21:20:11.233Z,9.30
2022-09-27T21:22:38.342Z,10.27
2022-09-27T21:25:05.631Z,7.93
2022-09-27T21:27:32.727Z,9.40
2022-09-27T21:30:01.155Z,9.40
2022-09-27T21:32:28.252Z,9.13
2022-09-27T21:34:55.709Z,9.63
2022-09-27T21:37:23.199Z,10.40
2022-09-27T21:39:50.270Z,9.20
2022-09-27T21:42:17.466Z,10.27
2022-09-27T21:44:44.674Z,9.60
2022-09-27T21:47:13.119Z,8.30
2022-09-27T21:49:40.207Z,10.27
2022-09-27T21:52:07.284Z,8.63
2022-09-27T21:54:34.436Z,8.20
2022-09-27T21:57:02.430Z,9.20
2022-09-27T21:59:29.524Z,9.53
2022-09-27T22:01:56.649Z,9.87
2022-09-27T22:04:23.864Z,10.10
2022-09-27T22:06:52.949Z,10.67
2022-09-27T22:09:20.038Z,9.93
2022-09-27T22:11:47.757Z,10.27
2022-09-27T22:14:16.234Z,10.50
2022-09-27T22:16:43.439Z,10.13
2022-09-27T22:19:11.963Z,9.80
2022-09-27T22:21:39.499Z,9.40
2022-09-27T22:24:09.222Z,9.17
2022-09-27T22:26:38.347Z,9.63
2022-09-27T22:29:05.875Z,11.10
2022-09-27T22:31:33.048Z,10.60
2022-09-27T22:34:05.130Z,9.97
2022-09-27T22:36:33.378Z,10.67
2022-09-27T22:39:00.979Z,10.53
2022-09-27T22:41:30.407Z,10.20
2022-09-27T22:43:58.078Z,10.57
2022-09-27T22:46:25.627Z,11.30
2022-09-27T22:48:52.880Z,9.17
2022-09-27T22:51:20.149Z,9.77
2022-09-27T22:53:47.223Z,9.93
2022-09-27T22:56:15.829Z,9.70
2022-09-27T22:58:43.976Z,10.67
2022-09-27T23:01:12.195Z,11.23
2022-09-27T23:03:39.520Z,11.17
2022-09-27T23:06:07.413Z,9.57
2022-09-27T23:08:37.972Z,10.87
2022-09-27T23:11:09.479Z,10.63
2022-09-27T23:13:37.819Z,10.03
2022-09-27T23:16:05.968Z,11.17
2022-09-27T23:18:33.240Z,10.73
2022-09-27T23:21:03.390Z,10.27
2022-09-27T23:23:38.207Z,9.67
2022-09-27T23:26:06.928Z,9.87
2022-09-27T23:28:35.094Z,10.27
2022-09-27T23:31:09.239Z,10.67
2022-09-27T23:33:37.314Z,9.77
2022-09-27T23:36:04.858Z,10.37
2022-09-27T23:38:32.460Z,10.13
2022-09-27T23:41:00.149Z,9.80
2022-09-27T23:43:27.733Z,11.10
2022-09-27T23:45:57.078Z,10.83
2022-09-27T23:48:27.716Z,10.47
2022-09-27T23:50:55.023Z,10.17
2022-09-27T23:53:22.447Z,12.50
2022-09-27T23:55:59.588Z,10.30
2022-09-27T23:58:26.648Z,10.07
